createdAt,value
2023-01-08T00:00:32.157Z,62.83
2023-01-08T00:05:28.849Z,62.97
2023-01-08T00:10:28.046Z,62.72
2023-01-08T00:15:25.324Z,62.97
2023-01-08T00:20:21.968Z,63.39
2023-01-08T00:25:18.917Z,63.44
2023-01-08T00:30:15.817Z,62.14
2023-01-08T00:35:13.066Z,62.75
2023-01-08T00:40:12.283Z,63.30
2023-01-08T00:45:13.639Z,63.34
2023-01-08T00:50:10.601Z,63.78
2023-01-08T00:55:08.295Z,64.53
2023-01-08T01:00:06.319Z,64.61
2023-01-08T01:05:03.950Z,64.37
2023-01-08T01:10:00.556Z,64.31
2023-01-08T01:14:57.815Z,64.06
2023-01-08T01:19:55.750Z,63.66
2023-01-08T01:24:52.378Z,64.04
2023-01-08T01:29:48.955Z,63.78
2023-01-08T01:34:46.231Z,64.17
2023-01-08T01:39:43.132Z,64.46
2023-01-08T01:44:41.083Z,64.68
2023-01-08T01:49:38.689Z,65.20
2023-01-08T01:54:36.357Z,64.72
2023-01-08T01:59:33.930Z,64.71
2023-01-08T02:04:30.584Z,64.35
2023-01-08T02:09:33.448Z,64.94
2023-01-08T02:14:35.263Z,64.84
2023-01-08T02:19:38.277Z,64.69
2023-01-08T02:24:42.988Z,63.54
2023-01-08T02:29:40.794Z,63.68
2023-01-08T02:34:38.803Z,63.73
2023-01-08T02:39:45.702Z,63.18
2023-01-08T02:44:50.164Z,63.05
2023-01-08T02:49:47.040Z,63.29
2023-01-08T02:54:44.498Z,61.56
2023-01-08T02:59:43.128Z,60.25
2023-01-08T03:04:46.766Z,60.12
2023-01-08T03:09:43.501Z,60.85
2023-01-08T03:14:43.789Z,61.38
2023-01-08T03:19:42.701Z,60.81
2023-01-08T03:24:40.881Z,60.54
2023-01-08T03:29:39.575Z,60.43
2023-01-08T03:34:37.891Z,60.23
2023-01-08T03:39:38.155Z,60.40
2023-01-08T03:44:34.745Z,60.78
2023-01-08T03:49:31.624Z,61.40
2023-01-08T03:54:30.836Z,60.90
2023-01-08T03:59:28.161Z,61.24
2023-01-08T04:04:24.738Z,61.31
2023-01-08T04:09:21.361Z,61.47
2023-01-08T04:14:18.322Z,63.73
2023-01-08T04:19:15.601Z,63.52
2023-01-08T04:24:12.854Z,63.37
2023-01-08T04:29:09.710Z,63.18
2023-01-08T04:34:06.404Z,63.50
2023-01-08T04:39:03.766Z,62.73
2023-01-08T04:44:00.314Z,62.83
2023-01-08T04:48:56.880Z,61.80
2023-01-08T04:53:53.337Z,60.61
2023-01-08T04:58:51.553Z,60.50
2023-01-08T05:03:48.454Z,60.77
2023-01-08T05:08:45.104Z,62.06
2023-01-08T05:13:41.694Z,64.71
2023-01-08T05:18:39.061Z,69.51
2023-01-08T05:23:35.693Z,71.93
2023-01-08T05:28:32.915Z,72.65
2023-01-08T05:33:29.399Z,72.09
2023-01-08T05:38:26.616Z,71.39
2023-01-08T05:43:23.074Z,73.86
2023-01-08T05:48:19.640Z,73.35
2023-01-08T05:53:18.214Z,72.44
2023-01-08T05:58:18.522Z,74.01
2023-01-08T06:03:15.039Z,75.35
2023-01-08T06:08:11.609Z,75.70
2023-01-08T06:13:09.145Z,76.56
2023-01-08T06:18:06.554Z,77.96
2023-01-08T06:23:03.105Z,77.05
2023-01-08T06:27:59.725Z,77.61
2023-01-08T06:32:56.366Z,76.18
2023-01-08T06:37:54.921Z,76.57
2023-01-08T06:42:51.474Z,75.25
2023-01-08T06:47:48.130Z,73.23
2023-01-08T06:52:44.736Z,72.24
2023-01-08T06:57:42.054Z,71.30
2023-01-08T07:02:38.930Z,70.90
2023-01-08T07:07:35.638Z,71.02
2023-01-08T07:12:32.253Z,69.78
2023-01-08T07:17:31.072Z,68.31
2023-01-08T07:22:27.616Z,67.89
2023-01-08T07:27:24.347Z,67.99
2023-01-08T07:32:21.149Z,68.64
2023-01-08T07:37:18.450Z,67.58
2023-01-08T07:42:15.155Z,69.08
2023-01-08T07:47:11.732Z,70.61
2023-01-08T07:52:08.366Z,73.27
2023-01-08T07:57:05.590Z,73.21
2023-01-08T08:02:02.422Z,74.25
2023-01-08T08:06:59.303Z,73.48
2023-01-08T08:11:56.065Z,76.64
2023-01-08T08:16:53.382Z,78.72
2023-01-08T08:21:49.876Z,77.98
2023-01-08T08:26:46.492Z,78.60
2023-01-08T08:31:43.268Z,77.51
2023-01-08T08:36:40.693Z,77.17
2023-01-08T08:41:39.298Z,76.18
2023-01-08T08:46:35.885Z,77.16
2023-01-08T08:51:32.569Z,75.91
2023-01-08T08:56:29.857Z,77.32
2023-01-08T09:01:26.556Z,75.68
2023-01-08T09:06:24.580Z,74.30
2023-01-08T09:11:21.339Z,76.62
2023-01-08T09:16:18.639Z,78.59
2023-01-08T09:21:15.619Z,79.83
2023-01-08T09:26:12.269Z,80.22
2023-01-08T09:31:09.245Z,79.06
2023-01-08T09:36:11.900Z,77.95
2023-01-08T09:41:10.177Z,77.85
2023-01-08T09:46:08.389Z,77.20
2023-01-08T09:51:06.866Z,78.10
2023-01-08T09:56:10.946Z,78.40
2023-01-08T10:01:11.313Z,76.40
2023-01-08T10:06:09.008Z,77.23
2023-01-08T10:11:07.033Z,76.95
2023-01-08T10:16:08.259Z,75.42
2023-01-08T10:21:05.047Z,73.11
2023-01-08T10:26:02.681Z,71.58
2023-01-08T10:31:04.121Z,72.64
2023-01-08T10:36:02.372Z,71.84
2023-01-08T10:40:59.920Z,73.39
2023-01-08T10:45:58.685Z,75.31
2023-01-08T10:51:06.858Z,74.44
2023-01-08T10:56:07.427Z,73.92
2023-01-08T11:01:12.080Z,74.03
2023-01-08T11:06:13.590Z,72.75
2023-01-08T11:11:13.738Z,72.65
2023-01-08T11:16:10.462Z,72.72
2023-01-08T11:21:17.944Z,71.29
2023-01-08T11:26:19.778Z,71.18
2023-01-08T11:31:19.348Z,70.04
2023-01-08T11:36:20.782Z,68.73
2023-01-08T11:41:25.911Z,68.25
2023-01-08T11:46:29.311Z,68.40
2023-01-08T11:51:36.307Z,68.54
2023-01-08T11:56:41.780Z,67.24
2023-01-08T12:01:44.976Z,67.44
2023-01-08T12:06:44.931Z,67.23
2023-01-08T12:11:47.243Z,68.44
2023-01-08T12:16:52.351Z,67.55
2023-01-08T12:21:55.854Z,67.19
2023-01-08T12:26:58.489Z,67.75
2023-01-08T12:32:08.980Z,66.37
2023-01-08T12:37:08.111Z,67.18
2023-01-08T12:42:08.568Z,67.49
2023-01-08T12:47:07.083Z,69.48
2023-01-08T12:52:08.699Z,70.41
2023-01-08T12:57:11.193Z,70.72
2023-01-08T13:02:15.126Z,69.20
2023-01-08T13:07:16.548Z,68.50
2023-01-08T13:12:15.186Z,68.53
2023-01-08T13:17:17.301Z,67.91
2023-01-08T13:22:23.118Z,68.75
2023-01-08T13:27:27.706Z,68.34
2023-01-08T13:32:26.175Z,68.72
2023-01-08T13:37:27.709Z,67.59
2023-01-08T13:42:28.009Z,67.18
2023-01-08T13:47:27.777Z,67.32
2023-01-08T13:52:31.883Z,66.77
2023-01-08T13:57:34.078Z,67.58
2023-01-08T14:02:32.128Z,67.01
2023-01-08T14:07:30.089Z,66.75
2023-01-08T14:12:29.161Z,66.15
2023-01-08T14:17:29.397Z,66.86
2023-01-08T14:22:28.794Z,67.74
2023-01-08T14:27:29.054Z,67.36
2023-01-08T14:32:28.969Z,67.48
2023-01-08T14:37:25.595Z,67.74
2023-01-08T14:42:41.961Z,68.21
2023-01-08T14:47:42.759Z,68.20
2023-01-08T14:52:40.363Z,68.08
2023-01-08T14:57:37.023Z,68.47
2023-01-08T15:02:36.215Z,69.61
2023-01-08T15:07:33.553Z,69.62
2023-01-08T15:12:30.929Z,69.78
2023-01-08T15:17:28.543Z,70.12
2023-01-08T15:22:26.852Z,70.91
2023-01-08T15:27:24.835Z,71.89
2023-01-08T15:32:22.683Z,72.87
2023-01-08T15:37:19.428Z,72.96
2023-01-08T15:42:37.222Z,73.05
2023-01-08T15:47:34.783Z,73.15
2023-01-08T15:52:31.570Z,74.55
2023-01-08T15:57:29.716Z,75.41
2023-01-08T16:02:26.406Z,75.53
2023-01-08T16:07:25.059Z,75.69
2023-01-08T16:12:25.101Z,75.40
2023-01-08T16:17:21.867Z,77.06
2023-01-08T16:27:33.452Z,78.53
2023-01-08T16:32:31.047Z,78.99
2023-01-08T16:37:30.340Z,79.16
2023-01-08T16:42:26.943Z,78.72
2023-01-08T16:47:26.270Z,79.17
2023-01-08T16:52:23.010Z,78.24
2023-01-08T16:57:19.770Z,78.39
2023-01-08T17:02:16.635Z,78.61
2023-01-08T17:07:16.355Z,78.31
2023-01-08T17:12:21.625Z,78.82
2023-01-08T17:17:21.141Z,78.69
2023-01-08T17:22:25.063Z,78.63
2023-01-08T17:27:21.616Z,78.82
2023-01-08T17:32:18.523Z,78.73
2023-01-08T17:37:15.121Z,79.02
2023-01-08T17:42:25.016Z,79.57
2023-01-08T17:47:21.870Z,79.80
2023-01-08T17:52:18.598Z,80.67
2023-01-08T17:57:16.395Z,79.86
2023-01-08T18:02:15.923Z,80.81
2023-01-08T18:07:13.031Z,82.40
2023-01-08T18:12:09.742Z,81.19
2023-01-08T18:17:07.306Z,79.90
2023-01-08T18:22:04.034Z,79.32
2023-01-08T18:27:00.639Z,79.61
2023-01-08T18:31:57.388Z,80.02
2023-01-08T18:36:54.910Z,80.53
2023-01-08T18:42:10.375Z,80.37
2023-01-08T18:47:06.983Z,79.70
2023-01-08T18:52:04.561Z,80.32
2023-01-08T18:57:01.196Z,80.41
2023-01-08T19:01:57.943Z,81.34
2023-01-08T19:06:54.728Z,80.54
2023-01-08T19:11:51.991Z,80.53
2023-01-08T19:16:51.018Z,80.46
2023-01-08T19:21:47.857Z,80.35
2023-01-08T19:26:44.504Z,80.61
2023-01-08T19:31:41.959Z,81.46
2023-01-08T19:36:39.106Z,82.53
2023-01-08T19:41:54.142Z,83.64
2023-01-08T19:46:51.376Z,83.88
2023-01-08T19:51:47.983Z,82.99
2023-01-08T19:56:44.649Z,81.62
2023-01-08T20:01:42.859Z,81.46
2023-01-08T20:06:43.475Z,80.61
2023-01-08T20:11:40.093Z,79.92
2023-01-08T20:16:36.780Z,79.40
2023-01-08T20:21:33.837Z,78.86
2023-01-08T20:26:31.482Z,78.62
2023-01-08T20:31:30.387Z,79.09
2023-01-08T20:36:27.790Z,79.46
2023-01-08T20:41:25.851Z,80.14
2023-01-08T20:46:23.528Z,80.51
2023-01-08T20:51:20.182Z,81.53
2023-01-08T20:56:17.139Z,81.68
2023-01-08T21:01:15.127Z,81.63
2023-01-08T21:06:13.429Z,81.86
2023-01-08T21:11:10.489Z,84.06
2023-01-08T21:16:09.027Z,86.83
2023-01-08T21:21:06.667Z,91.11
2023-01-08T21:26:04.987Z,91.16
2023-01-08T21:31:03.994Z,90.57
2023-01-08T21:36:03.048Z,88.93
2023-01-08T21:40:59.752Z,88.90
2023-01-08T21:45:59.896Z,90.38
2023-01-08T21:50:56.556Z,91.82
2023-01-08T21:55:53.165Z,91.72
2023-01-08T22:00:49.744Z,93.18
2023-01-08T22:05:56.748Z,92.45
2023-01-08T22:10:53.691Z,91.65
2023-01-08T22:16:00.022Z,88.93
2023-01-08T22:20:59.935Z,86.21
2023-01-08T22:25:56.872Z,85.14
2023-01-08T22:30:53.405Z,83.42
2023-01-08T22:35:51.262Z,82.96
2023-01-08T22:40:48.568Z,80.56
2023-01-08T22:45:51.176Z,79.51
2023-01-08T22:50:47.811Z,79.07
2023-01-08T22:55:45.681Z,78.69
2023-01-08T23:00:43.077Z,78.44
2023-01-08T23:05:39.961Z,77.96
2023-01-08T23:10:36.613Z,79.21
2023-01-08T23:15:33.264Z,78.55
2023-01-08T23:20:33.582Z,79.11
2023-01-08T23:25:31.863Z,78.34
2023-01-08T23:30:30.967Z,78.04
2023-01-08T23:35:27.742Z,78.28
2023-01-08T23:40:25.018Z,77.70
2023-01-08T23:45:21.619Z,76.30
2023-01-08T23:50:18.209Z,76.65
2023-01-08T23:55:14.890Z,74.32
